Time;durP1;ratioP1;P1;durP2;ratioP2;P2;SDS_P1;SDS_P2;PMS_P1;PMS_P2;Temp;Humidity;BMP_temperature;BMP_pressure;BME280_temperature;BME280_humidity;BME280_pressure;Samples;Min_cycle;Max_cycle;Signal;HPM_P1;HPM_P2
2022/12/22 03:28:07;;;;;;;117.60;40.20;;;8.70;99.90;;;;;;5096472;28;20183;-43
2022/12/22 03:30:33;;;;;;;144.93;44.20;;;7.10;99.90;;;;;;5096566;27;20600;-49
2022/12/22 03:32:59;;;;;;;179.05;47.58;;;7.70;99.90;;;;;;5095348;27;20947;-46
2022/12/22 03:35:26;;;;;;;138.43;43.65;;;7.80;99.90;;;;;;5095835;27;20122;-44
2022/12/22 03:37:52;;;;;;;180.45;46.30;;;7.70;99.90;;;;;;5096348;28;21250;-44
2022/12/22 03:40:18;;;;;;;209.10;50.22;;;7.90;99.90;;;;;;5096432;27;20039;-44
2022/12/22 03:48:12;;;;;;;174.30;44.67;;;8.10;99.90;;;;;;5096532;27;20059;-46
2022/12/22 03:50:38;;;;;;;212.32;47.20;;;7.80;99.90;;;;;;5095484;27;20043;-45
2022/12/22 03:53:04;;;;;;;212.38;48.63;;;8.10;99.90;;;;;;5096174;27;20046;-46
2022/12/22 03:55:30;;;;;;;182.55;46.30;;;7.80;99.90;;;;;;5095173;27;20522;-43
2022/12/22 03:57:55;;;;;;;188.70;44.33;;;7.70;99.90;;;;;;5096274;27;20577;-44
2022/12/22 04:00:21;;;;;;;172.20;43.55;;;9.60;99.90;;;;;;5095944;27;20046;-45
2022/12/22 04:02:47;;;;;;;190.15;45.72;;;7.70;99.90;;;;;;5095079;28;20285;-46
2022/12/22 04:05:13;;;;;;;152.52;42.05;;;7.80;99.90;;;;;;5097328;27;20071;-46
2022/12/22 04:07:38;;;;;;;173.10;41.08;;;7.80;99.90;;;;;;5097016;27;20040;-43
2022/12/22 04:12:55;;;;;;;212.80;45.10;;;7.70;99.90;;;;;;5096412;28;20154;-45
2022/12/22 04:15:25;;;;;;;204.88;45.47;;;8.70;99.90;;;;;;5095938;28;20043;-43
2022/12/22 04:17:51;;;;;;;247.05;47.20;;;7.70;99.90;;;;;;5096360;27;20450;-44
2022/12/22 04:20:18;;;;;;;152.55;40.40;;;7.70;99.90;;;;;;5097036;27;20043;-45
2022/12/22 04:22:44;;;;;;;205.35;42.80;;;7.80;99.90;;;;;;5098449;27;20035;-44
2022/12/22 04:25:10;;;;;;;187.43;42.10;;;7.70;99.90;;;;;;5096305;28;20047;-44
2022/12/22 04:27:35;;;;;;;187.98;41.03;;;8.00;99.90;;;;;;5096284;27;20074;-49
2022/12/22 04:30:02;;;;;;;191.18;42.25;;;7.80;99.90;;;;;;5096152;28;20035;-46
2022/12/22 04:32:28;;;;;;;193.88;42.33;;;7.60;99.90;;;;;;5094528;27;20184;-44
2022/12/22 04:34:53;;;;;;;209.07;43.85;;;7.90;99.90;;;;;;5096660;27;20671;-46
2022/12/22 04:37:19;;;;;;;254.82;45.58;;;7.70;99.90;;;;;;5093699;27;20050;-48
2022/12/22 04:39:45;;;;;;;182.95;39.63;;;7.70;99.90;;;;;;5093519;27;20036;-45
2022/12/22 04:42:10;;;;;;;147.23;38.97;;;9.50;99.90;;;;;;5094748;27;20036;-45
2022/12/22 04:44:36;;;;;;;199.50;43.20;;;8.70;99.90;;;;;;5095526;27;20047;-43
2022/12/22 04:47:02;;;;;;;147.88;37.75;;;8.30;99.90;;;;;;5094772;27;20130;-45
2022/12/22 04:49:27;;;;;;;162.27;38.85;;;7.60;99.90;;;;;;5093033;27;20125;-44
2022/12/22 04:51:53;;;;;;;143.10;37.15;;;7.70;99.90;;;;;;5094124;27;20040;-47
2022/12/22 04:54:19;;;;;;;166.77;39.50;;;7.60;99.90;;;;;;5093232;27;20039;-45
2022/12/22 04:56:44;;;;;;;141.88;37.60;;;7.60;99.90;;;;;;5094694;27;20075;-48
2022/12/22 04:59:10;;;;;;;143.75;39.22;;;7.60;99.90;;;;;;5092804;27;20202;-47
2022/12/22 05:01:36;;;;;;;151.65;38.58;;;7.70;99.90;;;;;;5095202;28;20031;-47
2022/12/22 05:04:01;;;;;;;150.32;38.88;;;9.10;99.90;;;;;;5094893;27;20051;-44
2022/12/22 05:06:27;;;;;;;140.73;36.97;;;7.70;99.90;;;;;;5094800;27;20768;-44
2022/12/22 05:08:53;;;;;;;157.45;37.50;;;7.40;99.90;;;;;;5094354;27;20100;-48
2022/12/22 05:11:19;;;;;;;146.15;37.50;;;7.60;99.90;;;;;;5094499;28;20031;-48
2022/12/22 05:13:44;;;;;;;155.02;36.72;;;7.70;99.90;;;;;;5094843;27;20028;-44
2022/12/22 05:16:13;;;;;;;123.32;34.20;;;9.30;99.90;;;;;;5094669;27;20050;-48
2022/12/22 05:18:41;;;;;;;140.63;37.55;;;9.10;99.90;;;;;;5095520;27;20105;-48
2022/12/22 05:21:15;;;;;;;122.75;34.97;;;8.60;99.90;;;;;;5095206;28;20067;-49
2022/12/22 05:23:41;;;;;;;105.32;32.33;;;7.20;99.90;;;;;;5095828;27;20484;-45
2022/12/22 05:26:07;;;;;;;112.28;34.10;;;7.40;99.90;;;;;;5095475;28;20047;-45
2022/12/22 05:28:33;;;;;;;115.72;33.08;;;7.30;99.90;;;;;;5094529;27;20031;-45
2022/12/22 05:31:08;;;;;;;125.97;33.63;;;8.80;99.90;;;;;;5096269;28;20074;-45
2022/12/22 05:33:34;;;;;;;116.03;33.58;;;7.90;99.90;;;;;;5095566;27;20440;-47
2022/12/22 05:36:00;;;;;;;120.68;33.70;;;9.30;99.90;;;;;;5096524;27;20047;-44
2022/12/22 05:38:25;;;;;;;129.60;34.80;;;8.20;99.90;;;;;;5095073;27;20051;-45
2022/12/22 05:40:51;;;;;;;120.90;32.95;;;8.30;99.90;;;;;;5095014;27;20088;-51
2022/12/22 05:43:17;;;;;;;115.10;33.33;;;9.10;99.90;;;;;;5093094;27;20039;-45
2022/12/22 05:45:46;;;;;;;123.10;32.83;;;7.30;99.90;;;;;;5094570;27;20047;-47
2022/12/22 05:48:12;;;;;;;130.32;33.03;;;7.40;99.90;;;;;;5094272;28;20139;-48
2022/12/22 05:50:38;;;;;;;148.23;34.67;;;9.40;99.90;;;;;;5093843;27;20040;-50
2022/12/22 05:53:05;;;;;;;166.80;38.92;;;7.30;99.90;;;;;;5094103;27;20484;-44
2022/12/22 05:55:31;;;;;;;175.70;38.20;;;7.30;99.90;;;;;;5093081;28;20079;-47
2022/12/22 05:58:00;;;;;;;150.45;36.50;;;7.50;99.90;;;;;;5093908;28;20074;-44
2022/12/22 06:00:27;;;;;;;168.10;37.47;;;8.70;99.90;;;;;;5093545;28;20071;-45
2022/12/22 06:02:53;;;;;;;130.15;33.70;;;7.20;99.90;;;;;;5094056;27;20411;-47
2022/12/22 06:05:19;;;;;;;165.77;37.75;;;7.20;99.90;;;;;;5092468;27;20039;-45
2022/12/22 06:07:44;;;;;;;191.60;39.67;;;7.40;99.90;;;;;;5093909;27;20047;-46
2022/12/22 06:10:11;;;;;;;173.60;37.35;;;7.50;99.90;;;;;;5092252;28;20032;-45
2022/12/22 06:12:37;;;;;;;177.95;40.10;;;7.00;99.90;;;;;;5095253;28;20046;-47
2022/12/22 06:15:03;;;;;;;167.18;37.20;;;6.30;99.90;;;;;;5092691;27;20048;-46
2022/12/22 06:17:29;;;;;;;175.27;37.85;;;7.00;99.90;;;;;;5094176;28;20043;-47
2022/12/22 06:19:54;;;;;;;159.65;35.95;;;8.80;99.90;;;;;;5091484;27;20039;-45
2022/12/22 06:22:20;;;;;;;186.20;37.28;;;8.80;99.90;;;;;;5092147;28;20105;-44
2022/12/22 06:24:46;;;;;;;186.25;37.78;;;6.80;99.90;;;;;;5093312;28;20072;-46
2022/12/22 06:27:12;;;;;;;165.00;35.80;;;6.70;99.90;;;;;;5092573;28;20050;-48
2022/12/22 06:29:37;;;;;;;157.50;35.13;;;7.60;99.90;;;;;;5094239;27;20038;-47
2022/12/22 06:32:03;;;;;;;158.65;35.63;;;7.60;99.90;;;;;;5095209;28;20036;-50
2022/12/22 06:34:29;;;;;;;151.88;33.65;;;6.90;99.90;;;;;;5093953;28;20090;-45
2022/12/22 06:36:55;;;;;;;177.05;35.92;;;6.80;99.90;;;;;;5094266;28;20042;-46
2022/12/22 06:39:21;;;;;;;156.38;32.67;;;6.70;99.90;;;;;;5093049;28;20047;-44
2022/12/22 06:44:30;;;;;;;165.20;32.72;;;8.20;99.90;;;;;;5094218;28;20126;-48
2022/12/22 06:46:56;;;;;;;120.75;29.10;;;7.20;99.90;;;;;;5094408;28;20150;-49
2022/12/22 06:49:22;;;;;;;102.90;26.75;;;8.70;99.90;;;;;;5094107;28;20108;-45
2022/12/22 06:51:48;;;;;;;104.05;26.90;;;8.00;99.90;;;;;;5093717;28;21528;-44
2022/12/22 06:54:14;;;;;;;94.05;25.80;;;7.10;99.90;;;;;;5095103;28;21101;-44
2022/12/22 06:56:40;;;;;;;106.70;26.90;;;6.60;99.90;;;;;;5094470;28;20058;-45
2022/12/22 06:59:06;;;;;;;88.32;23.45;;;7.60;99.90;;;;;;5094126;28;20047;-44
2022/12/22 07:01:31;;;;;;;67.50;23.63;;;6.60;99.90;;;;;;5094102;28;20036;-44
2022/12/22 07:03:57;;;;;;;79.65;21.67;;;6.60;99.90;;;;;;5093949;28;20254;-44
2022/12/22 07:06:23;;;;;;;88.63;22.42;;;7.40;99.90;;;;;;5093197;28;20054;-44
2022/12/22 07:08:49;;;;;;;85.28;21.65;;;6.30;99.90;;;;;;5093197;28;20047;-45
2022/12/22 07:11:15;;;;;;;97.68;23.58;;;6.40;99.90;;;;;;5093080;28;20032;-44
2022/12/22 07:13:41;;;;;;;84.85;25.23;;;7.60;99.90;;;;;;5093298;28;20062;-45
2022/12/22 07:16:08;;;;;;;93.80;31.63;;;7.60;99.90;;;;;;5092791;28;20341;-45
2022/12/22 07:18:37;;;;;;;92.22;34.40;;;6.10;99.90;;;;;;5093119;28;20055;-46
2022/12/22 07:21:06;;;;;;;102.15;38.90;;;6.20;99.90;;;;;;5093502;28;20075;-48
2022/12/22 07:23:32;;;;;;;111.68;44.40;;;6.20;99.90;;;;;;5094007;28;20101;-46
2022/12/22 07:25:58;;;;;;;119.85;42.80;;;6.10;99.90;;;;;;5093516;28;20098;-44
2022/12/22 07:28:24;;;;;;;115.93;43.88;;;7.60;99.90;;;;;;5092122;28;20452;-47
2022/12/22 07:30:50;;;;;;;99.35;40.63;;;5.90;99.90;;;;;;5092398;28;20036;-47
2022/12/22 07:33:16;;;;;;;132.38;48.17;;;6.80;99.90;;;;;;5091745;28;20768;-43
2022/12/22 07:35:41;;;;;;;149.90;53.70;;;8.00;99.90;;;;;;5092226;28;20040;-44
2022/12/22 07:38:07;;;;;;;154.10;56.83;;;5.90;99.90;;;;;;5090369;28;20051;-44
2022/12/22 07:40:33;;;;;;;139.63;50.08;;;7.90;99.90;;;;;;5092827;28;20220;-44
2022/12/22 07:42:59;;;;;;;150.93;55.05;;;5.70;99.90;;;;;;5091237;28;20150;-46
2022/12/22 07:45:26;;;;;;;209.00;64.45;;;5.90;99.90;;;;;;5092428;28;20046;-44
2022/12/22 07:47:58;;;;;;;176.45;65.18;;;5.90;99.90;;;;;;5092875;28;20036;-44
2022/12/22 07:50:24;;;;;;;145.35;57.50;;;5.90;99.90;;;;;;5093136;28;20078;-47
2022/12/22 07:52:51;;;;;;;134.63;50.05;;;7.00;99.90;;;;;;5098117;28;20043;-46
2022/12/22 07:55:17;;;;;;;156.88;50.38;;;6.10;99.90;;;;;;5097653;27;20310;-43
2022/12/22 07:57:43;;;;;;;172.00;50.65;;;7.80;99.90;;;;;;5095887;27;20555;-44
2022/12/22 08:00:10;;;;;;;163.70;34.72;;;5.90;99.90;;;;;;5095330;27;20032;-44
2022/12/22 08:02:36;;;;;;;183.70;31.15;;;5.90;99.90;;;;;;5097321;27;20105;-44
2022/12/22 08:05:01;;;;;;;155.65;28.13;;;5.80;99.90;;;;;;5096437;27;20051;-45
2022/12/22 08:07:27;;;;;;;178.60;26.33;;;6.00;99.90;;;;;;5097080;27;20108;-45
2022/12/22 08:09:53;;;;;;;129.55;25.38;;;6.30;99.90;;;;;;5096631;27;20388;-44
2022/12/22 08:12:19;;;;;;;244.90;25.27;;;5.80;99.90;;;;;;5097320;27;20039;-44
2022/12/22 08:14:45;;;;;;;269.75;27.20;;;6.00;99.90;;;;;;5096962;27;20622;-45
2022/12/22 08:17:11;;;;;;;333.92;26.08;;;6.00;99.90;;;;;;5095680;28;20085;-45
2022/12/22 08:19:37;;;;;;;314.60;25.23;;;5.80;99.90;;;;;;5096662;27;20188;-44
2022/12/22 08:22:03;;;;;;;167.60;20.02;;;6.00;99.90;;;;;;5095512;27;20689;-47
2022/12/22 08:24:29;;;;;;;226.32;24.30;;;6.00;99.90;;;;;;5095604;27;20070;-47
2022/12/22 08:27:00;;;;;;;126.90;20.10;;;5.90;99.90;;;;;;5095775;27;20093;-45
2022/12/22 08:29:33;;;;;;;178.88;21.38;;;6.00;99.90;;;;;;5094509;27;20051;-46
2022/12/22 08:32:00;;;;;;;157.10;22.92;;;6.10;99.90;;;;;;5095289;27;20696;-45
2022/12/22 08:34:26;;;;;;;228.60;24.05;;;5.90;99.90;;;;;;5094451;28;20122;-44
2022/12/22 08:36:56;;;;;;;139.15;18.33;;;5.90;99.90;;;;;;5095635;28;21041;-43
2022/12/22 08:39:24;;;;;;;117.18;17.20;;;6.00;99.90;;;;;;5093891;27;20693;-44
2022/12/22 08:41:50;;;;;;;150.02;17.15;;;5.70;99.90;;;;;;5094886;27;20617;-45
2022/12/22 08:44:27;;;;;;;203.80;18.02;;;5.80;99.90;;;;;;5094955;27;20043;-44
2022/12/22 08:46:55;;;;;;;171.90;17.27;;;5.70;99.90;;;;;;5094120;27;20183;-46
2022/12/22 08:49:22;;;;;;;144.10;17.48;;;5.70;99.90;;;;;;5094582;27;20040;-48
2022/12/22 08:51:48;;;;;;;133.48;19.10;;;5.70;99.90;;;;;;5095215;27;20043;-45
2022/12/22 08:54:14;;;;;;;89.80;14.80;;;5.90;99.90;;;;;;5094187;27;20051;-48
2022/12/22 08:56:42;;;;;;;104.80;14.80;;;5.60;99.90;;;;;;5095230;27;20071;-45
2022/12/22 08:59:08;;;;;;;86.57;15.60;;;5.40;99.90;;;;;;5093222;27;20048;-48
2022/12/22 09:01:41;;;;;;;109.35;15.85;;;5.70;99.90;;;;;;5094571;27;20035;-48
2022/12/22 09:04:07;;;;;;;96.82;16.00;;;5.60;99.90;;;;;;5094421;27;20036;-45
2022/12/22 09:06:33;;;;;;;81.00;15.00;;;5.70;99.90;;;;;;5094658;27;20549;-44
2022/12/22 09:09:02;;;;;;;86.68;15.52;;;5.60;99.90;;;;;;5095582;28;20058;-46
2022/12/22 09:11:29;;;;;;;93.82;15.77;;;5.50;99.90;;;;;;5093899;27;20062;-46
2022/12/22 09:13:57;;;;;;;94.50;16.38;;;5.70;99.90;;;;;;5093935;27;20035;-45
2022/12/22 09:16:24;;;;;;;74.07;14.57;;;5.70;99.90;;;;;;5094329;27;20098;-44
2022/12/22 09:18:50;;;;;;;65.55;13.88;;;5.70;99.90;;;;;;5095102;27;20472;-44
2022/12/22 09:21:16;;;;;;;65.75;13.30;;;5.60;99.90;;;;;;5093031;28;20079;-46
2022/12/22 09:23:42;;;;;;;58.22;14.05;;;5.70;99.90;;;;;;5074440;28;20116;-44
2022/12/22 09:26:13;;;;;;;112.80;16.58;;;5.80;99.90;;;;;;5095106;28;20531;-47
2022/12/22 09:28:39;;;;;;;80.82;15.77;;;5.60;99.90;;;;;;5095638;27;20054;-44
2022/12/22 09:31:05;;;;;;;86.20;15.95;;;;;;;;;;5095328;28;20044;-44
2022/12/22 09:33:32;;;;;;;80.00;14.75;;;5.70;99.90;;;;;;5094981;27;20504;-45
2022/12/22 09:35:58;;;;;;;44.88;13.20;;;5.80;99.90;;;;;;5096046;27;20050;-43
2022/12/22 09:38:27;;;;;;;86.28;15.15;;;5.80;99.90;;;;;;5095508;27;20054;-44
2022/12/22 09:40:56;;;;;;;64.28;13.55;;;5.70;99.90;;;;;;5093450;27;20114;-44
2022/12/22 09:43:27;;;;;;;72.30;14.00;;;5.80;99.90;;;;;;5094173;27;20040;-45
2022/12/22 09:45:53;;;;;;;78.40;14.43;;;5.90;99.90;;;;;;5094153;27;20052;-44
2022/12/22 09:48:20;;;;;;;74.15;15.32;;;;;;;;;;5092792;28;20058;-45
2022/12/22 09:50:46;;;;;;;62.78;14.98;;;6.00;99.90;;;;;;5093497;27;20051;-44
2022/12/22 09:53:21;;;;;;;64.75;15.45;;;6.10;99.90;;;;;;5092893;27;20114;-44
2022/12/22 09:55:48;;;;;;;48.78;14.45;;;6.10;99.90;;;;;;5093211;27;20134;-47
2022/12/22 09:58:30;;;;;;;71.40;16.10;;;6.40;99.90;;;;;;5093480;27;20054;-45
2022/12/22 10:01:21;;;;;;;58.07;14.90;;;6.50;99.90;;;;;;5094099;27;20035;-47
2022/12/22 10:04:01;;;;;;;66.18;16.20;;;6.60;99.90;;;;;;5073275;28;20267;-44
2022/12/22 10:06:46;;;;;;;55.97;15.52;;;6.70;99.90;;;;;;5092794;28;20046;-44
2022/12/22 10:09:22;;;;;;;50.33;14.82;;;6.70;99.90;;;;;;5093847;28;20032;-45
2022/12/22 10:11:51;;;;;;;46.92;14.98;;;6.70;99.90;;;;;;5093068;27;20043;-46
2022/12/22 10:14:16;;;;;;;53.55;15.27;;;6.90;99.90;;;;;;5092183;28;20039;-46
2022/12/22 10:16:42;;;;;;;37.17;14.27;;;6.90;99.90;;;;;;5092755;27;20553;-44
2022/12/22 10:19:13;;;;;;;34.22;13.10;;;7.10;99.90;;;;;;5092497;28;20070;-44
2022/12/22 10:21:39;;;;;;;27.48;11.32;;;7.10;99.90;;;;;;5092223;28;20130;-47
2022/12/22 10:24:27;;;;;;;26.73;12.35;;;7.70;99.90;;;;;;5093518;28;20036;-47
2022/12/22 10:26:56;;;;;;;27.42;12.30;;;7.40;99.90;;;;;;5094332;28;20174;-48
2022/12/22 10:29:22;;;;;;;27.42;12.05;;;9.00;99.90;;;;;;5093075;28;20127;-44
2022/12/22 10:32:03;;;;;;;25.48;10.32;;;9.60;99.90;;;;;;5093740;27;20126;-45
2022/12/22 10:34:30;;;;;;;25.13;10.85;;;7.90;99.90;;;;;;5094834;27;20035;-44
2022/12/22 10:36:59;;;;;;;26.92;10.80;;;8.00;99.90;;;;;;5093447;28;20089;-47
2022/12/22 10:39:29;;;;;;;23.33;10.63;;;7.90;99.90;;;;;;5094874;28;20035;-45
2022/12/22 10:42:00;;;;;;;23.23;10.07;;;8.80;99.90;;;;;;5094429;28;20039;-46
2022/12/22 10:44:33;;;;;;;26.83;10.07;;;9.50;99.90;;;;;;5094902;28;20047;-45
2022/12/22 10:47:10;;;;;;;20.63;9.10;;;8.00;99.90;;;;;;5093887;28;20544;-45
2022/12/22 10:49:38;;;;;;;20.95;8.13;;;9.00;99.90;;;;;;5093210;28;20096;-46
2022/12/22 10:52:13;;;;;;;19.65;8.93;;;7.80;99.90;;;;;;5093937;28;20040;-45
2022/12/22 10:54:43;;;;;;;21.42;9.05;;;7.70;99.90;;;;;;5093620;28;20158;-46
2022/12/22 10:57:15;;;;;;;20.95;8.93;;;8.20;99.90;;;;;;5093118;28;20047;-44
2022/12/22 10:59:49;;;;;;;19.17;7.50;;;9.00;99.90;;;;;;5092655;28;20044;-49
2022/12/22 11:02:24;;;;;;;18.70;7.55;;;7.80;99.90;;;;;;5092934;28;20035;-45
2022/12/22 11:04:51;;;;;;;15.73;6.95;;;7.70;99.90;;;;;;5092734;28;20042;-43
2022/12/22 11:07:17;;;;;;;13.45;6.47;;;8.80;99.90;;;;;;5093453;28;20415;-44
2022/12/22 11:09:43;;;;;;;12.98;6.13;;;7.80;99.90;;;;;;5092739;28;20116;-47
2022/12/22 11:12:40;;;;;;;17.83;6.15;;;7.70;99.90;;;;;;5091375;28;20551;-45
2022/12/22 11:15:24;;;;;;;13.48;6.47;;;7.80;99.90;;;;;;5093524;28;20035;-46
2022/12/22 11:18:36;;;;;;;16.30;6.20;;;7.60;99.90;;;;;;5092006;28;20534;-46
2022/12/22 11:21:20;;;;;;;18.13;6.00;;;7.60;99.90;;;;;;5092559;28;20047;-46
2022/12/22 11:24:01;;;;;;;12.90;5.65;;;8.50;99.90;;;;;;5092471;28;20050;-48
2022/12/22 11:26:41;;;;;;;18.55;6.72;;;7.80;99.90;;;;;;5093971;27;20174;-44
2022/12/22 11:29:35;;;;;;;14.10;6.20;;;9.00;99.90;;;;;;5097276;27;20051;-43
2022/12/22 11:32:01;;;;;;;21.38;6.40;;;7.80;99.90;;;;;;5096705;28;20036;-45
2022/12/22 11:34:41;;;;;;;17.00;6.50;;;8.00;99.90;;;;;;5095546;28;20416;-45
2022/12/22 11:37:25;;;;;;;15.18;6.07;;;7.70;99.90;;;;;;5096078;27;20633;-46
2022/12/22 11:40:10;;;;;;;20.10;5.85;;;7.90;99.90;;;;;;5097245;28;20534;-44
2022/12/22 11:43:01;;;;;;;17.25;6.18;;;7.90;99.90;;;;;;5096978;27;20039;-45
2022/12/22 11:45:59;;;;;;;14.40;5.28;;;10.10;99.90;;;;;;5095403;27;20515;-44
2022/12/22 11:48:44;;;;;;;17.33;6.00;;;7.80;99.90;;;;;;5095572;27;20573;-46
2022/12/22 11:51:22;;;;;;;17.00;5.30;;;8.00;99.90;;;;;;5095828;27;20047;-49
2022/12/22 11:53:58;;;;;;;14.40;4.47;;;7.80;99.90;;;;;;5095703;28;20061;-44
2022/12/22 11:56:31;;;;;;;16.42;4.50;;;7.90;99.90;;;;;;5095685;28;20134;-45
2022/12/22 11:59:26;;;;;;;15.50;4.47;;;8.00;99.90;;;;;;5097266;27;20412;-45
2022/12/22 12:02:10;;;;;;;14.98;4.40;;;8.00;99.90;;;;;;5081455;27;20052;-48
2022/12/22 12:04:42;;;;;;;14.75;3.95;;;8.10;99.90;;;;;;5097852;27;20087;-44
2022/12/22 12:07:11;;;;;;;13.23;3.50;;;8.10;99.90;;;;;;5098745;27;20066;-47
2022/12/22 12:10:13;;;;;;;17.02;3.63;;;8.10;99.90;;;;;;5096215;27;20040;-48
2022/12/22 12:12:48;;;;;;;19.70;3.85;;;8.10;99.90;;;;;;5096129;28;20046;-45
2022/12/22 12:15:42;;;;;;;16.73;4.00;;;8.20;99.90;;;;;;5095513;27;20139;-45
2022/12/22 12:18:49;;;;;;;16.42;3.72;;;8.00;99.90;;;;;;5095987;28;20062;-49
2022/12/22 12:21:25;;;;;;;14.15;3.85;;;8.00;99.90;;;;;;5050925;28;20519;-48
2022/12/22 12:24:18;;;;;;;18.95;4.50;;;9.00;99.90;;;;;;5088863;27;20048;-45
2022/12/22 12:27:14;;;;;;;17.13;3.55;;;8.10;99.90;;;;;;5095322;27;20149;-46
2022/12/22 12:30:10;;;;;;;15.38;3.47;;;8.00;99.90;;;;;;5095186;27;20087;-44
2022/12/22 12:32:40;;;;;;;16.55;3.85;;;8.00;99.90;;;;;;5096608;27;20043;-47
2022/12/22 12:35:33;;;;;;;20.65;4.20;;;7.90;99.90;;;;;;5095047;27;20043;-47
2022/12/22 12:38:26;;;;;;;13.75;4.47;;;7.90;99.90;;;;;;5094877;27;20040;-47
2022/12/22 12:41:10;;;;;;;13.77;3.70;;;7.90;99.90;;;;;;5084407;27;20043;-44
2022/12/22 12:43:37;;;;;;;13.75;3.63;;;7.80;99.90;;;;;;5094685;27;20474;-49
2022/12/22 12:46:41;;;;;;;12.77;3.90;;;7.90;99.90;;;;;;5095248;27;20527;-47
2022/12/22 12:49:37;;;;;;;9.18;3.92;;;7.80;99.90;;;;;;5094485;27;20098;-45
2022/12/22 12:52:07;;;;;;;15.85;4.28;;;7.90;99.90;;;;;;5094310;27;20036;-43
2022/12/22 12:54:46;;;;;;;15.40;3.45;;;7.70;99.90;;;;;;5092350;27;20476;-48
2022/12/22 12:57:28;;;;;;;15.68;4.70;;;7.80;99.90;;;;;;5095398;27;20044;-48
2022/12/22 12:59:59;;;;;;;11.52;4.10;;;8.00;99.90;;;;;;5095350;27;20825;-44
2022/12/22 13:02:33;;;;;;;15.63;3.95;;;8.10;99.90;;;;;;5092017;27;20047;-45
2022/12/22 13:05:02;;;;;;;16.13;3.70;;;8.10;99.90;;;;;;5094630;27;20630;-45
2022/12/22 13:08:05;;;;;;;14.27;3.90;;;8.20;99.90;;;;;;5094699;27;20087;-46
2022/12/22 13:10:37;;;;;;;16.38;3.78;;;8.20;99.90;;;;;;5094359;27;20340;-43
2022/12/22 13:13:03;;;;;;;18.88;4.18;;;8.10;99.90;;;;;;5093643;27;20035;-44
2022/12/22 13:15:33;;;;;;;16.08;4.18;;;8.20;99.90;;;;;;5094631;27;20108;-46
2022/12/22 13:18:01;;;;;;;15.55;3.53;;;8.30;99.90;;;;;;5093475;27;20042;-45
2022/12/22 13:20:35;;;;;;;14.35;3.88;;;9.50;99.90;;;;;;5096498;27;20786;-43
2022/12/22 13:23:08;;;;;;;17.13;3.85;;;8.30;99.90;;;;;;5095931;27;20599;-44
2022/12/22 13:25:54;;;;;;;14.80;3.88;;;8.30;99.90;;;;;;5095344;27;20066;-48
2022/12/22 13:28:22;;;;;;;14.35;4.47;;;8.40;99.90;;;;;;5093686;27;20058;-45
2022/12/22 13:30:57;;;;;;;14.95;3.33;;;8.10;99.90;;;;;;5095754;27;20039;-45
2022/12/22 13:33:27;;;;;;;15.02;3.90;;;8.30;99.90;;;;;;5094973;27;20043;-47
2022/12/22 13:35:56;;;;;;;13.75;3.70;;;8.20;99.90;;;;;;5095898;27;20949;-48
2022/12/22 13:38:36;;;;;;;20.33;4.07;;;9.30;99.90;;;;;;5095168;27;20432;-44
2022/12/22 13:41:11;;;;;;;17.08;3.72;;;8.20;99.90;;;;;;5093686;27;20597;-46
2022/12/22 13:43:37;;;;;;;12.77;3.78;;;8.30;99.90;;;;;;5093321;27;20472;-44
2022/12/22 13:46:04;;;;;;;19.45;4.43;;;8.40;99.90;;;;;;5093328;28;20043;-44
2022/12/22 13:48:40;;;;;;;14.90;3.95;;;8.30;99.90;;;;;;5093871;27;20580;-46
2022/12/22 13:51:27;;;;;;;23.50;4.57;;;8.30;99.90;;;;;;5093964;28;20044;-47
2022/12/22 13:54:02;;;;;;;39.72;5.43;;;8.20;99.90;;;;;;5093391;28;20112;-44
2022/12/22 13:56:42;;;;;;;20.00;4.22;;;8.30;99.90;;;;;;5092290;27;20108;-45
2022/12/22 13:59:19;;;;;;;25.42;4.32;;;8.20;99.90;;;;;;5093512;27;20302;-45
2022/12/22 14:01:49;;;;;;;34.83;5.50;;;8.30;99.90;;;;;;5092716;27;21171;-46
2022/12/22 14:04:15;;;;;;;25.15;4.30;;;8.20;99.90;;;;;;5093062;28;20038;-47
2022/12/22 14:06:41;;;;;;;20.08;4.40;;;9.40;99.90;;;;;;5093249;28;20043;-47
2022/12/22 14:09:20;;;;;;;18.20;4.55;;;8.20;99.90;;;;;;5094091;28;20058;-46
2022/12/22 14:11:54;;;;;;;17.15;4.43;;;8.30;99.90;;;;;;5093431;27;20835;-47
2022/12/22 14:14:29;;;;;;;18.33;3.38;;;8.20;99.90;;;;;;5093202;28;20036;-46
2022/12/22 14:16:59;;;;;;;9.15;3.30;;;8.00;99.90;;;;;;5092740;27;20656;-45
2022/12/22 14:19:29;;;;;;;19.73;3.78;;;8.30;99.90;;;;;;5092485;27;20040;-45
2022/12/22 14:22:07;;;;;;;9.65;3.20;;;10.30;99.90;;;;;;5093738;27;20039;-45
2022/12/22 14:24:46;;;;;;;14.55;2.92;;;8.30;99.90;;;;;;5091377;28;20039;-45
2022/12/22 14:27:35;;;;;;;25.13;3.75;;;8.20;99.90;;;;;;5092926;27;20046;-45
2022/12/22 14:30:03;;;;;;;16.55;3.38;;;8.40;99.90;;;;;;5093122;27;20044;-48
2022/12/22 14:32:38;;;;;;;19.02;4.22;;;8.50;99.90;;;;;;5093478;28;20047;-46
2022/12/22 14:35:18;;;;;;;18.30;3.42;;;8.40;99.90;;;;;;5093732;28;20568;-48
2022/12/22 14:37:44;;;;;;;24.00;4.50;;;8.30;99.90;;;;;;5093613;28;20522;-50
2022/12/22 14:40:29;;;;;;;19.45;3.72;;;8.10;99.90;;;;;;5093983;28;20038;-46
2022/12/22 14:42:56;;;;;;;20.20;3.42;;;8.10;99.90;;;;;;5093746;28;20408;-48
2022/12/22 14:45:23;;;;;;;17.40;2.92;;;8.40;99.90;;;;;;5094693;27;20123;-48
2022/12/22 14:47:49;;;;;;;11.50;2.60;;;8.10;99.90;;;;;;5093299;28;20055;-44
2022/12/22 14:50:19;;;;;;;18.50;3.45;;;8.00;99.90;;;;;;5093322;28;20122;-45
2022/12/22 14:52:49;;;;;;;12.25;2.40;;;8.00;99.90;;;;;;5093044;28;20039;-45
2022/12/22 14:55:36;;;;;;;16.55;2.85;;;8.20;99.90;;;;;;5092139;28;20808;-46
2022/12/22 14:58:05;;;;;;;13.45;3.70;;;8.10;99.90;;;;;;5093006;28;20496;-46
2022/12/22 15:00:45;;;;;;;11.82;2.60;;;8.10;99.90;;;;;;5096278;27;20066;-46
2022/12/22 15:03:31;;;;;;;12.23;2.45;;;8.10;99.90;;;;;;5096160;27;20188;-46
2022/12/22 15:06:26;;;;;;;10.35;2.70;;;8.40;99.90;;;;;;5096173;27;20063;-44
2022/12/22 15:09:14;;;;;;;15.73;3.13;;;7.90;99.90;;;;;;5097422;27;20392;-44
2022/12/22 15:11:46;;;;;;;11.40;2.80;;;7.60;99.90;;;;;;5090404;27;20058;-48
2022/12/22 15:14:16;;;;;;;13.15;3.15;;;7.60;99.90;;;;;;5096821;27;20096;-45
2022/12/22 15:16:43;;;;;;;15.38;3.05;;;7.60;99.90;;;;;;5095713;27;20063;-45
2022/12/22 15:19:13;;;;;;;12.60;3.17;;;7.60;99.90;;;;;;5096301;27;20058;-44
2022/12/22 15:21:39;;;;;;;14.57;2.88;;;7.50;99.90;;;;;;5095961;28;20051;-46
2022/12/22 15:24:11;;;;;;;11.07;2.58;;;7.60;99.90;;;;;;5096789;27;20035;-44
2022/12/22 15:26:37;;;;;;;16.73;3.15;;;7.50;99.90;;;;;;5096501;28;20038;-44
2022/12/22 15:29:02;;;;;;;14.20;3.70;;;9.00;99.90;;;;;;5095938;27;20044;-46
2022/12/22 15:31:28;;;;;;;16.75;4.20;;;7.40;99.90;;;;;;5094761;27;20098;-48
2022/12/22 15:33:58;;;;;;;9.35;3.55;;;8.80;99.90;;;;;;5095547;27;20043;-44
2022/12/22 15:36:23;;;;;;;13.82;4.22;;;7.30;99.90;;;;;;5095880;28;20512;-44
2022/12/22 15:38:50;;;;;;;12.50;4.40;;;7.30;99.90;;;;;;5095993;27;20067;-45
2022/12/22 15:41:15;;;;;;;11.88;3.85;;;7.20;99.90;;;;;;5096490;27;20139;-44
2022/12/22 15:43:41;;;;;;;9.88;4.25;;;7.30;99.90;;;;;;5095384;28;20399;-45
2022/12/22 15:46:12;;;;;;;13.73;4.72;;;7.30;99.90;;;;;;5094718;27;20086;-45
2022/12/22 15:48:38;;;;;;;20.13;5.07;;;7.20;99.90;;;;;;5095624;27;20051;-46
2022/12/22 15:51:07;;;;;;;14.18;4.93;;;7.10;99.90;;;;;;5098706;27;20332;-45
2022/12/22 15:53:35;;;;;;;14.75;4.97;;;7.70;99.90;;;;;;5097498;27;20105;-45
2022/12/22 15:56:01;;;;;;;13.25;4.35;;;8.90;99.90;;;;;;5096715;27;20043;-47
2022/12/22 15:58:34;;;;;;;14.68;5.60;;;5.00;99.90;;;;;;5097450;27;20527;-46
2022/12/22 16:00:59;;;;;;;17.40;5.53;;;8.80;99.90;;;;;;5097670;27;20309;-44
2022/12/22 16:03:25;;;;;;;15.73;5.80;;;7.10;99.90;;;;;;5097691;27;20039;-44
2022/12/22 16:05:52;;;;;;;20.63;6.43;;;8.40;99.90;;;;;;5098266;27;20046;-45
2022/12/22 16:08:24;;;;;;;25.02;8.15;;;8.70;99.90;;;;;;5099565;27;20075;-47
2022/12/22 16:10:50;;;;;;;15.25;6.68;;;8.80;99.90;;;;;;5097856;27;20449;-45
2022/12/22 16:13:18;;;;;;;16.88;6.03;;;7.40;99.90;;;;;;5096867;27;20040;-45
2022/12/22 16:15:44;;;;;;;11.90;5.90;;;7.00;99.90;;;;;;5096737;27;20047;-43
2022/12/22 16:18:11;;;;;;;11.27;5.35;;;7.20;99.90;;;;;;5096228;27;20043;-44
2022/12/22 16:20:40;;;;;;;14.60;6.75;;;7.00;99.90;;;;;;5095972;27;20043;-47
2022/12/22 16:23:14;;;;;;;16.63;5.60;;;7.10;99.90;;;;;;5096656;27;20053;-48
2022/12/22 16:25:43;;;;;;;14.85;6.10;;;8.90;99.90;;;;;;5095425;28;20042;-44
2022/12/22 16:28:16;;;;;;;13.40;5.78;;;8.70;99.90;;;;;;5095826;27;20044;-47
2022/12/22 16:30:42;;;;;;;19.05;6.28;;;7.10;99.90;;;;;;5094427;27;20759;-47
2022/12/22 16:33:10;;;;;;;11.50;6.53;;;7.10;99.90;;;;;;5094860;27;20039;-46
2022/12/22 16:35:36;;;;;;;12.52;5.60;;;8.80;99.90;;;;;;5095148;27;20077;-43